createdAt,value
2024-01-05T00:01:08.894Z,100.00
2024-01-05T00:03:36.063Z,100.00
2024-01-05T00:06:03.185Z,100.00
2024-01-05T00:08:30.135Z,100.00
2024-01-05T00:10:57.162Z,100.00
2024-01-05T00:13:24.259Z,100.00
2024-01-05T00:15:51.180Z,100.00
2024-01-05T00:18:18.140Z,100.00
2024-01-05T00:20:45.084Z,100.00
2024-01-05T00:23:12.119Z,100.00
2024-01-05T00:25:39.177Z,100.00
2024-01-05T00:28:06.224Z,100.00
2024-01-05T00:30:36.321Z,100.00
2024-01-05T00:33:03.739Z,100.00
2024-01-05T00:35:30.735Z,100.00
2024-01-05T00:37:57.582Z,100.00
2024-01-05T00:40:24.631Z,100.00
2024-01-05T00:42:52.352Z,100.00
2024-01-05T00:45:19.316Z,100.00
2024-01-05T00:47:49.032Z,100.00
2024-01-05T00:50:16.090Z,100.00
2024-01-05T00:52:42.999Z,100.00
2024-01-05T00:55:14.377Z,100.00
2024-01-05T00:57:41.357Z,100.00
2024-01-05T01:00:10.780Z,100.00
2024-01-05T01:02:38.477Z,100.00
2024-01-05T01:05:06.191Z,100.00
2024-01-05T01:07:33.324Z,100.00
2024-01-05T01:10:00.276Z,100.00
2024-01-05T01:12:28.801Z,100.00
2024-01-05T01:14:55.701Z,100.00
2024-01-05T01:17:23.565Z,100.00
2024-01-05T01:19:50.698Z,100.00
2024-01-05T01:22:17.561Z,100.00
2024-01-05T01:24:44.434Z,100.00
2024-01-05T01:27:11.309Z,100.00
2024-01-05T01:29:38.312Z,100.00
2024-01-05T01:32:05.248Z,100.00
2024-01-05T01:34:32.082Z,100.00
2024-01-05T01:36:59.029Z,100.00
2024-01-05T01:39:25.918Z,100.00
2024-01-05T01:41:52.828Z,100.00
2024-01-05T01:44:19.673Z,100.00
2024-01-05T01:46:46.983Z,100.00
2024-01-05T01:49:14.140Z,100.00
2024-01-05T01:51:42.346Z,100.00
2024-01-05T01:54:09.468Z,100.00
2024-01-05T01:56:38.013Z,100.00
2024-01-05T01:59:06.601Z,100.00
2024-01-05T02:01:34.556Z,100.00
2024-01-05T02:04:05.286Z,100.00
2024-01-05T02:06:32.965Z,100.00
2024-01-05T02:09:00.125Z,100.00
2024-01-05T02:11:27.533Z,100.00
2024-01-05T02:13:54.485Z,100.00
2024-01-05T02:16:21.367Z,100.00
2024-01-05T02:18:53.740Z,100.00
2024-01-05T02:21:25.529Z,100.00
2024-01-05T02:23:52.840Z,100.00
2024-01-05T02:26:19.805Z,100.00
2024-01-05T02:28:46.791Z,100.00
2024-01-05T02:31:13.734Z,100.00
2024-01-05T02:33:40.984Z,100.00
2024-01-05T02:36:08.660Z,100.00
2024-01-05T02:38:35.563Z,100.00
2024-01-05T02:41:02.974Z,100.00
2024-01-05T02:43:30.047Z,100.00
2024-01-05T02:45:56.984Z,100.00
2024-01-05T02:48:23.902Z,100.00
2024-01-05T02:50:50.883Z,100.00
2024-01-05T02:53:17.719Z,100.00
2024-01-05T02:55:44.691Z,100.00
2024-01-05T02:58:11.491Z,100.00
2024-01-05T03:00:38.653Z,100.00
2024-01-05T03:03:06.683Z,100.00
2024-01-05T03:05:33.793Z,100.00
2024-01-05T03:08:00.684Z,100.00
2024-01-05T03:10:27.562Z,100.00
2024-01-05T03:12:54.495Z,100.00
2024-01-05T03:15:21.280Z,100.00
2024-01-05T03:17:49.568Z,100.00
2024-01-05T03:20:18.993Z,100.00
2024-01-05T03:22:45.804Z,100.00
2024-01-05T03:25:12.894Z,100.00
2024-01-05T03:27:39.742Z,100.00
2024-01-05T03:30:07.958Z,100.00
2024-01-05T03:32:35.148Z,100.00
2024-01-05T03:35:02.086Z,100.00
2024-01-05T03:37:29.080Z,100.00
2024-01-05T03:39:55.846Z,100.00
2024-01-05T03:42:22.726Z,100.00
2024-01-05T03:44:49.599Z,100.00
2024-01-05T03:47:16.412Z,100.00
2024-01-05T03:49:43.459Z,100.00
2024-01-05T03:52:10.958Z,100.00
2024-01-05T03:54:37.866Z,100.00
2024-01-05T03:57:04.864Z,100.00
2024-01-05T03:59:31.935Z,100.00
2024-01-05T04:01:58.709Z,100.00
2024-01-05T04:04:25.659Z,100.00
2024-01-05T04:06:52.818Z,100.00
2024-01-05T04:09:19.785Z,100.00
2024-01-05T04:11:47.062Z,100.00
2024-01-05T04:14:19.105Z,100.00
2024-01-05T04:16:46.335Z,100.00
2024-01-05T04:19:13.683Z,100.00
2024-01-05T04:21:40.801Z,100.00
2024-01-05T04:24:07.712Z,100.00
2024-01-05T04:26:35.020Z,100.00
2024-01-05T04:29:01.895Z,100.00
2024-01-05T04:31:29.199Z,100.00
2024-01-05T04:33:56.865Z,100.00
2024-01-05T04:36:23.882Z,100.00
2024-01-05T04:38:50.748Z,100.00
2024-01-05T04:41:18.098Z,100.00
2024-01-05T04:43:45.972Z,100.00
2024-01-05T04:46:13.010Z,100.00
2024-01-05T04:48:40.166Z,100.00
2024-01-05T04:51:07.220Z,100.00
2024-01-05T04:53:34.105Z,100.00
2024-01-05T04:56:00.924Z,100.00
2024-01-05T04:58:27.780Z,100.00
2024-01-05T05:00:55.582Z,100.00
2024-01-05T05:03:22.684Z,100.00
2024-01-05T05:05:49.888Z,100.00
2024-01-05T05:08:16.854Z,100.00
2024-01-05T05:10:44.039Z,100.00
2024-01-05T05:13:11.332Z,100.00
2024-01-05T05:15:39.089Z,100.00
2024-01-05T05:18:06.393Z,100.00
2024-01-05T05:20:33.492Z,100.00
2024-01-05T05:23:00.427Z,100.00
2024-01-05T05:25:27.820Z,100.00
2024-01-05T05:27:57.223Z,100.00
2024-01-05T05:30:25.216Z,100.00
2024-01-05T05:32:52.265Z,100.00
2024-01-05T05:35:19.270Z,100.00
2024-01-05T05:37:46.298Z,100.00
2024-01-05T05:40:16.105Z,100.00
2024-01-05T05:42:42.974Z,100.00
2024-01-05T05:45:10.235Z,100.00
2024-01-05T05:47:38.926Z,100.00
2024-01-05T05:50:07.783Z,100.00
2024-01-05T05:52:36.328Z,100.00
2024-01-05T05:55:03.418Z,100.00
2024-01-05T05:57:30.877Z,100.00
2024-01-05T05:59:58.011Z,100.00
2024-01-05T06:02:24.765Z,100.00
2024-01-05T06:04:51.766Z,100.00
2024-01-05T06:07:18.615Z,100.00
2024-01-05T06:09:45.515Z,100.00
2024-01-05T06:12:12.389Z,100.00
2024-01-05T06:14:39.813Z,100.00
2024-01-05T06:17:06.730Z,100.00
2024-01-05T06:19:33.581Z,100.00
2024-01-05T06:22:01.487Z,100.00
2024-01-05T06:24:29.585Z,100.00
2024-01-05T06:26:56.533Z,100.00
2024-01-05T06:29:23.340Z,100.00
2024-01-05T06:31:50.106Z,100.00
2024-01-05T06:34:17.402Z,100.00
2024-01-05T06:36:44.517Z,100.00
2024-01-05T06:39:12.594Z,100.00
2024-01-05T06:41:39.582Z,100.00
2024-01-05T06:44:06.457Z,100.00
2024-01-05T06:46:33.341Z,100.00
2024-01-05T06:49:00.610Z,100.00
2024-01-05T06:51:31.578Z,100.00
2024-01-05T06:53:59.310Z,100.00
2024-01-05T06:56:28.725Z,100.00
2024-01-05T06:58:56.884Z,100.00
2024-01-05T07:01:24.340Z,100.00
2024-01-05T07:03:51.434Z,100.00
2024-01-05T07:06:18.414Z,100.00
2024-01-05T07:08:45.190Z,100.00
2024-01-05T07:11:22.878Z,100.00
2024-01-05T07:13:50.588Z,100.00
2024-01-05T07:16:19.016Z,100.00
2024-01-05T07:18:47.560Z,100.00
2024-01-05T07:21:15.400Z,100.00
2024-01-05T07:23:42.777Z,100.00
2024-01-05T07:26:10.471Z,100.00
2024-01-05T07:28:41.502Z,100.00
2024-01-05T07:31:09.753Z,100.00
2024-01-05T07:33:36.881Z,100.00
2024-01-05T07:36:09.941Z,100.00
2024-01-05T07:38:37.153Z,100.00
2024-01-05T07:41:04.176Z,100.00
2024-01-05T07:43:31.913Z,100.00
2024-01-05T07:45:58.822Z,100.00
2024-01-05T07:48:25.800Z,100.00
2024-01-05T07:50:52.735Z,100.00
2024-01-05T07:53:19.530Z,100.00
2024-01-05T07:55:46.486Z,100.00
2024-01-05T07:58:13.286Z,100.00
2024-01-05T08:00:40.878Z,100.00
2024-01-05T08:03:07.923Z,100.00
2024-01-05T08:05:34.895Z,100.00
2024-01-05T08:08:01.851Z,100.00
2024-01-05T08:10:28.726Z,100.00
2024-01-05T08:12:55.820Z,100.00
2024-01-05T08:15:22.835Z,100.00
2024-01-05T08:17:49.542Z,100.00
2024-01-05T08:20:16.715Z,100.00
2024-01-05T08:22:43.770Z,100.00
2024-01-05T08:25:10.674Z,100.00
2024-01-05T08:27:38.383Z,100.00
2024-01-05T08:30:06.146Z,100.00
2024-01-05T08:32:36.297Z,100.00
2024-01-05T08:35:03.974Z,100.00
2024-01-05T08:37:31.440Z,100.00
2024-01-05T08:39:58.355Z,100.00
2024-01-05T08:42:28.382Z,100.00
2024-01-05T08:44:58.614Z,100.00
2024-01-05T08:47:25.505Z,100.00
2024-01-05T08:49:52.287Z,100.00
2024-01-05T08:52:19.224Z,100.00
2024-01-05T08:54:47.432Z,100.00
2024-01-05T08:57:15.697Z,100.00
2024-01-05T08:59:43.713Z,100.00
2024-01-05T09:02:10.736Z,100.00
2024-01-05T09:04:38.185Z,100.00
2024-01-05T09:07:05.684Z,100.00
2024-01-05T09:09:32.722Z,100.00
2024-01-05T09:12:00.418Z,100.00
2024-01-05T09:14:27.173Z,100.00
2024-01-05T09:16:54.043Z,100.00
2024-01-05T09:19:24.754Z,100.00
2024-01-05T09:21:52.870Z,100.00
2024-01-05T09:24:19.717Z,100.00
2024-01-05T09:26:47.967Z,100.00
2024-01-05T09:29:14.715Z,100.00
2024-01-05T09:31:47.010Z,100.00
2024-01-05T09:34:14.815Z,100.00
2024-01-05T09:36:42.810Z,100.00
2024-01-05T09:39:10.555Z,100.00
2024-01-05T09:41:39.248Z,100.00
2024-01-05T09:44:06.530Z,100.00
2024-01-05T09:46:35.196Z,100.00
2024-01-05T09:49:05.283Z,100.00
2024-01-05T09:51:32.553Z,100.00
2024-01-05T09:54:00.666Z,100.00
2024-01-05T09:56:28.478Z,100.00
2024-01-05T09:58:57.099Z,100.00
2024-01-05T10:01:32.268Z,100.00
2024-01-05T10:04:03.117Z,100.00
2024-01-05T10:06:31.846Z,100.00
2024-01-05T10:09:00.418Z,100.00
2024-01-05T10:11:37.767Z,100.00
2024-01-05T10:14:09.292Z,100.00
2024-01-05T10:16:38.853Z,100.00
2024-01-05T10:19:16.408Z,100.00
2024-01-05T10:21:45.362Z,100.00
2024-01-05T10:24:17.518Z,100.00
2024-01-05T10:26:46.846Z,100.00
2024-01-05T10:29:15.866Z,100.00
2024-01-05T10:31:42.835Z,100.00
2024-01-05T10:34:10.260Z,100.00
2024-01-05T10:36:37.406Z,100.00
2024-01-05T10:39:05.336Z,100.00
2024-01-05T10:41:32.175Z,100.00
2024-01-05T10:43:59.744Z,100.00
2024-01-05T10:46:26.776Z,100.00
2024-01-05T10:48:57.796Z,100.00
2024-01-05T10:51:25.522Z,100.00
2024-01-05T10:53:53.151Z,100.00
2024-01-05T10:56:24.942Z,100.00
2024-01-05T10:58:51.812Z,100.00
2024-01-05T11:01:23.061Z,100.00
2024-01-05T11:03:52.646Z,100.00
2024-01-05T11:06:20.195Z,100.00
2024-01-05T11:09:01.593Z,100.00
2024-01-05T11:12:10.672Z,100.00
2024-01-05T11:15:15.299Z,100.00
2024-01-05T11:17:55.961Z,100.00
2024-01-05T11:20:50.688Z,100.00
2024-01-05T11:23:20.937Z,100.00
2024-01-05T11:25:48.180Z,100.00
2024-01-05T11:28:38.106Z,100.00
2024-01-05T11:31:06.044Z,100.00
2024-01-05T11:33:50.048Z,71.96
2024-01-05T11:36:50.998Z,71.10
2024-01-05T11:39:45.672Z,63.97
2024-01-05T11:42:35.029Z,74.35
2024-01-05T11:45:11.183Z,83.27
2024-01-05T11:47:48.238Z,79.68
2024-01-05T11:50:35.485Z,70.75
2024-01-05T11:53:24.876Z,59.27
2024-01-05T11:56:04.533Z,63.83
2024-01-05T11:58:40.096Z,66.08
2024-01-05T12:01:11.327Z,63.96
2024-01-05T12:03:43.040Z,61.72
2024-01-05T12:06:11.875Z,62.49
2024-01-05T12:08:41.360Z,67.77
2024-01-05T12:11:10.045Z,72.77
2024-01-05T12:13:38.975Z,80.48
2024-01-05T12:16:08.735Z,83.89
2024-01-05T12:18:49.545Z,86.97
2024-01-05T12:21:19.241Z,88.79
2024-01-05T12:23:57.673Z,91.64
2024-01-05T12:26:26.068Z,94.03
2024-01-05T12:28:53.287Z,95.41
2024-01-05T12:31:21.425Z,93.65
2024-01-05T12:36:50.196Z,90.96
2024-01-05T12:39:17.062Z,83.06
2024-01-05T12:41:47.353Z,88.49
2024-01-05T12:44:17.181Z,83.69
2024-01-05T12:46:45.562Z,75.90
2024-01-05T12:49:26.924Z,72.59
2024-01-05T12:51:54.665Z,79.55
2024-01-05T12:54:23.535Z,72.23
2024-01-05T12:56:52.690Z,76.00
2024-01-05T12:59:23.635Z,77.49
2024-01-05T13:02:05.893Z,76.06
2024-01-05T13:04:40.575Z,56.59
2024-01-05T13:07:11.096Z,51.91
2024-01-05T13:09:38.173Z,48.18
2024-01-05T13:12:05.785Z,49.08
2024-01-05T13:14:32.759Z,45.83
2024-01-05T13:16:59.472Z,46.90
2024-01-05T13:19:26.745Z,46.62
2024-01-05T13:21:53.599Z,47.13
2024-01-05T13:24:20.628Z,46.11
2024-01-05T13:26:47.525Z,51.47
2024-01-05T13:29:14.345Z,46.61
2024-01-05T13:31:41.288Z,54.47
2024-01-05T13:34:08.735Z,46.60
2024-01-05T13:36:35.628Z,50.77
2024-01-05T13:39:03.763Z,56.69
2024-01-05T13:41:30.502Z,58.34
2024-01-05T13:43:57.330Z,51.75
2024-01-05T13:46:25.115Z,53.22
2024-01-05T13:48:52.286Z,58.71
2024-01-05T13:51:25.208Z,61.23
2024-01-05T13:53:51.870Z,67.98
2024-01-05T13:56:19.229Z,70.07
2024-01-05T13:58:46.148Z,71.84
2024-01-05T14:01:12.968Z,74.37
2024-01-05T14:03:40.128Z,76.81
2024-01-05T14:06:13.360Z,78.62
2024-01-05T14:08:41.233Z,78.96
2024-01-05T14:11:16.277Z,80.51
2024-01-05T14:13:43.143Z,82.37
2024-01-05T14:16:12.788Z,83.28
2024-01-05T14:18:39.926Z,84.72
2024-01-05T14:21:07.263Z,85.34
2024-01-05T14:23:36.854Z,87.36
2024-01-05T14:26:11.647Z,89.58
2024-01-05T14:28:46.137Z,90.96
2024-01-05T14:31:25.997Z,92.81
2024-01-05T14:33:53.079Z,94.09
2024-01-05T14:36:20.169Z,94.80
2024-01-05T14:38:47.122Z,96.26
2024-01-05T14:41:13.812Z,97.31
2024-01-05T14:43:40.729Z,98.06
2024-01-05T14:46:11.239Z,98.77
2024-01-05T14:48:39.000Z,99.09
2024-01-05T14:51:06.502Z,99.70
2024-01-05T14:53:35.213Z,100.00
2024-01-05T14:56:02.795Z,100.00
2024-01-05T14:58:30.120Z,100.00
2024-01-05T15:00:57.364Z,100.00
2024-01-05T15:03:25.704Z,100.00
2024-01-05T15:05:52.712Z,100.00
2024-01-05T15:08:19.545Z,100.00
2024-01-05T15:10:46.387Z,100.00
2024-01-05T15:13:13.165Z,100.00
2024-01-05T15:15:40.162Z,100.00
2024-01-05T15:18:07.351Z,100.00
2024-01-05T15:20:35.585Z,100.00
2024-01-05T15:23:02.867Z,100.00
2024-01-05T15:25:29.798Z,100.00
2024-01-05T15:27:57.950Z,100.00
2024-01-05T15:30:25.120Z,100.00
2024-01-05T15:32:51.933Z,100.00
2024-01-05T15:35:21.156Z,100.00
2024-01-05T15:37:47.907Z,100.00
2024-01-05T15:40:22.344Z,100.00
2024-01-05T15:43:00.913Z,100.00
2024-01-05T15:45:30.133Z,100.00
2024-01-05T15:47:57.076Z,100.00
2024-01-05T15:50:25.332Z,100.00
2024-01-05T15:52:52.117Z,100.00
2024-01-05T15:55:21.234Z,100.00
2024-01-05T15:57:48.024Z,100.00
2024-01-05T16:00:15.737Z,100.00
2024-01-05T16:02:44.477Z,100.00
2024-01-05T16:05:12.201Z,100.00
2024-01-05T16:07:39.349Z,100.00
2024-01-05T16:10:06.901Z,100.00
2024-01-05T16:12:34.118Z,100.00
2024-01-05T16:15:01.151Z,100.00
2024-01-05T16:17:37.175Z,100.00
2024-01-05T16:20:04.384Z,100.00
2024-01-05T16:22:34.216Z,100.00
2024-01-05T16:25:01.023Z,100.00
2024-01-05T16:27:28.017Z,100.00
2024-01-05T16:29:55.179Z,100.00
2024-01-05T16:32:22.043Z,100.00
2024-01-05T16:34:49.117Z,100.00
2024-01-05T16:37:16.107Z,100.00
2024-01-05T16:39:45.920Z,100.00
2024-01-05T16:42:13.238Z,100.00
2024-01-05T16:44:43.308Z,100.00
2024-01-05T16:47:10.160Z,100.00
2024-01-05T16:49:37.483Z,100.00
2024-01-05T16:52:04.634Z,100.00
2024-01-05T16:54:31.872Z,100.00
2024-01-05T16:56:59.584Z,100.00
2024-01-05T16:59:26.303Z,100.00
2024-01-05T17:01:53.177Z,100.00
2024-01-05T17:04:25.510Z,100.00
2024-01-05T17:06:53.675Z,100.00
2024-01-05T17:09:21.030Z,100.00
2024-01-05T17:11:48.073Z,100.00
2024-01-05T17:14:14.916Z,100.00
2024-01-05T17:16:41.750Z,100.00
2024-01-05T17:19:09.811Z,100.00
2024-01-05T17:21:41.458Z,100.00
2024-01-05T17:24:08.554Z,100.00
2024-01-05T17:26:39.974Z,100.00
2024-01-05T17:29:07.565Z,100.00
2024-01-05T17:31:34.603Z,100.00
2024-01-05T17:34:01.777Z,100.00
2024-01-05T17:36:40.756Z,100.00
2024-01-05T17:39:07.934Z,100.00
2024-01-05T17:41:36.076Z,100.00
2024-01-05T17:44:03.061Z,100.00
2024-01-05T17:46:29.781Z,100.00
2024-01-05T17:49:00.089Z,100.00
2024-01-05T17:51:33.629Z,100.00
2024-01-05T17:54:02.071Z,100.00
2024-01-05T17:56:45.735Z,100.00
2024-01-05T17:59:12.925Z,100.00
2024-01-05T18:01:44.648Z,100.00
2024-01-05T18:04:13.247Z,100.00
2024-01-05T18:06:41.228Z,100.00
2024-01-05T18:09:08.738Z,100.00
2024-01-05T18:11:35.732Z,100.00
2024-01-05T18:14:11.111Z,100.00
2024-01-05T18:16:38.343Z,100.00
2024-01-05T18:19:10.025Z,100.00
2024-01-05T18:21:43.415Z,100.00
2024-01-05T18:24:10.817Z,100.00
2024-01-05T18:26:38.822Z,100.00
2024-01-05T18:29:16.964Z,100.00
2024-01-05T18:31:53.854Z,100.00
2024-01-05T18:34:33.207Z,100.00
2024-01-05T18:37:00.363Z,100.00
2024-01-05T18:39:27.429Z,100.00
2024-01-05T18:41:54.258Z,100.00
2024-01-05T18:44:21.367Z,100.00
2024-01-05T18:46:50.549Z,100.00
2024-01-05T18:49:19.443Z,100.00
2024-01-05T18:51:46.779Z,100.00
2024-01-05T18:54:17.015Z,100.00
2024-01-05T18:56:47.050Z,100.00
2024-01-05T18:59:14.041Z,100.00
2024-01-05T19:01:42.761Z,100.00
2024-01-05T19:04:09.859Z,100.00
2024-01-05T19:06:37.138Z,100.00
2024-01-05T19:09:03.976Z,100.00
2024-01-05T19:11:30.923Z,100.00
2024-01-05T19:13:57.846Z,100.00
2024-01-05T19:16:24.854Z,100.00
2024-01-05T19:18:52.526Z,100.00
2024-01-05T19:21:19.797Z,100.00
2024-01-05T19:23:46.713Z,100.00
2024-01-05T19:26:22.088Z,100.00
2024-01-05T19:28:52.072Z,100.00
2024-01-05T19:31:19.100Z,100.00
2024-01-05T19:33:45.932Z,100.00
2024-01-05T19:36:16.094Z,100.00
2024-01-05T19:38:43.747Z,100.00
2024-01-05T19:41:10.636Z,100.00
2024-01-05T19:43:40.882Z,100.00
2024-01-05T19:46:08.239Z,100.00
2024-01-05T19:48:38.465Z,100.00
2024-01-05T19:51:07.829Z,100.00
2024-01-05T19:53:36.146Z,100.00
2024-01-05T19:56:03.593Z,100.00
2024-01-05T19:58:30.880Z,100.00
2024-01-05T20:00:58.055Z,100.00
2024-01-05T20:03:25.439Z,100.00
2024-01-05T20:05:52.445Z,100.00
2024-01-05T20:08:20.206Z,100.00
2024-01-05T20:10:48.422Z,100.00
2024-01-05T20:13:15.803Z,100.00
2024-01-05T20:15:50.096Z,100.00
2024-01-05T20:18:17.116Z,100.00
2024-01-05T20:20:44.434Z,100.00
2024-01-05T20:23:11.255Z,100.00
2024-01-05T20:25:41.489Z,100.00
2024-01-05T20:28:08.448Z,100.00
2024-01-05T20:30:35.441Z,100.00
2024-01-05T20:33:02.460Z,100.00
2024-01-05T20:35:29.386Z,100.00
2024-01-05T20:37:56.757Z,100.00
2024-01-05T20:40:23.818Z,100.00
2024-01-05T20:42:50.727Z,100.00
2024-01-05T20:45:17.657Z,100.00
2024-01-05T20:47:44.611Z,100.00
2024-01-05T20:50:11.566Z,100.00
2024-01-05T20:52:39.227Z,100.00
2024-01-05T20:55:06.472Z,100.00
2024-01-05T20:57:33.257Z,100.00
2024-01-05T21:00:00.757Z,100.00
2024-01-05T21:02:27.600Z,100.00
2024-01-05T21:04:55.046Z,100.00
2024-01-05T21:07:23.060Z,100.00
2024-01-05T21:09:49.961Z,100.00
2024-01-05T21:12:16.972Z,100.00
2024-01-05T21:14:43.876Z,100.00
2024-01-05T21:17:10.719Z,100.00
2024-01-05T21:19:41.349Z,100.00
2024-01-05T21:22:08.611Z,100.00
2024-01-05T21:24:41.030Z,100.00
2024-01-05T21:27:10.872Z,100.00
2024-01-05T21:29:46.093Z,100.00
2024-01-05T21:32:13.999Z,100.00
2024-01-05T21:34:42.404Z,100.00
2024-01-05T21:37:10.481Z,100.00
2024-01-05T21:39:37.874Z,100.00
2024-01-05T21:42:06.155Z,100.00
2024-01-05T21:44:33.079Z,100.00
2024-01-05T21:47:01.653Z,100.00
2024-01-05T21:49:29.625Z,100.00
2024-01-05T21:51:57.493Z,100.00
2024-01-05T21:54:27.198Z,100.00
2024-01-05T21:56:54.401Z,100.00
2024-01-05T21:59:21.450Z,100.00
2024-01-05T22:01:48.673Z,100.00
2024-01-05T22:04:19.050Z,100.00
2024-01-05T22:06:46.175Z,100.00
2024-01-05T22:09:13.321Z,100.00
2024-01-05T22:11:47.025Z,100.00
2024-01-05T22:14:27.468Z,100.00
2024-01-05T22:16:55.844Z,100.00
2024-01-05T22:19:22.897Z,100.00
2024-01-05T22:21:49.913Z,100.00
2024-01-05T22:24:16.829Z,100.00
2024-01-05T22:26:43.792Z,100.00
2024-01-05T22:29:10.703Z,100.00
2024-01-05T22:31:37.784Z,100.00
2024-01-05T22:34:04.717Z,100.00
2024-01-05T22:36:31.741Z,100.00
2024-01-05T22:38:58.815Z,100.00
2024-01-05T22:41:25.693Z,100.00
2024-01-05T22:43:53.765Z,100.00
2024-01-05T22:46:23.598Z,100.00
2024-01-05T22:48:51.000Z,100.00
2024-01-05T22:51:25.882Z,100.00
2024-01-05T22:53:53.109Z,100.00
2024-01-05T22:56:21.334Z,100.00
2024-01-05T22:58:48.094Z,100.00
2024-01-05T23:01:22.482Z,100.00
2024-01-05T23:03:50.488Z,100.00
2024-01-05T23:06:17.454Z,100.00
2024-01-05T23:08:44.481Z,100.00
2024-01-05T23:11:11.808Z,100.00
2024-01-05T23:13:38.907Z,100.00
2024-01-05T23:16:05.927Z,100.00
2024-01-05T23:18:32.706Z,100.00
2024-01-05T23:20:59.477Z,100.00
2024-01-05T23:23:26.290Z,100.00
2024-01-05T23:25:53.146Z,100.00
2024-01-05T23:28:20.048Z,100.00
2024-01-05T23:30:48.371Z,100.00
2024-01-05T23:33:15.447Z,100.00
2024-01-05T23:35:42.434Z,100.00
2024-01-05T23:38:09.279Z,100.00
2024-01-05T23:40:36.137Z,100.00
2024-01-05T23:43:03.293Z,100.00
2024-01-05T23:45:30.260Z,100.00
2024-01-05T23:47:57.028Z,100.00
2024-01-05T23:50:24.245Z,100.00
2024-01-05T23:52:51.045Z,100.00
2024-01-05T23:55:17.886Z,100.00
2024-01-05T23:57:44.968Z,100.00
